createdAt,value
2023-03-29T00:01:50.143Z,5.43
2023-03-29T00:05:57.498Z,6.87
2023-03-29T00:10:04.601Z,4.07
2023-03-29T00:14:06.426Z,6.07
2023-03-29T00:18:08.446Z,5.53
2023-03-29T00:22:10.569Z,7.83
2023-03-29T00:26:16.783Z,4.60
2023-03-29T00:30:18.831Z,9.80
2023-03-29T00:34:21.967Z,7.93
2023-03-29T00:38:26.858Z,6.90
2023-03-29T00:42:32.418Z,6.73
2023-03-29T00:46:35.064Z,5.67
2023-03-29T00:50:41.382Z,5.67
2023-03-29T00:54:43.312Z,6.83
2023-03-29T00:59:03.716Z,7.30
2023-03-29T01:03:13.614Z,5.93
2023-03-29T01:07:25.047Z,5.73
2023-03-29T01:11:42.462Z,5.60
2023-03-29T01:15:45.423Z,5.27
2023-03-29T01:20:03.752Z,5.53
2023-03-29T01:24:45.403Z,7.87
2023-03-29T01:29:08.740Z,3.93
2023-03-29T01:33:14.962Z,4.97
2023-03-29T01:37:43.664Z,3.53
2023-03-29T01:42:03.258Z,4.83
2023-03-29T01:46:20.832Z,4.53
2023-03-29T01:50:45.123Z,7.00
2023-03-29T01:55:03.439Z,5.70
2023-03-29T01:59:09.508Z,4.77
2023-03-29T02:03:11.542Z,4.43
2023-03-29T02:07:13.615Z,5.10
2023-03-29T02:11:15.477Z,3.77
2023-03-29T02:15:19.819Z,5.77
2023-03-29T02:19:24.103Z,3.67
2023-03-29T02:23:44.595Z,4.47
2023-03-29T02:27:46.671Z,5.13
2023-03-29T02:32:04.764Z,5.23
2023-03-29T02:36:17.821Z,5.70
2023-03-29T02:40:20.016Z,6.93
2023-03-29T02:44:29.070Z,7.80
2023-03-29T02:48:38.747Z,7.03
2023-03-29T02:52:45.025Z,6.40
2023-03-29T02:56:49.490Z,6.03
2023-03-29T03:00:55.039Z,6.73
2023-03-29T03:04:57.630Z,4.77
2023-03-29T03:08:59.552Z,4.07
2023-03-29T03:13:04.748Z,5.57
2023-03-29T03:17:06.725Z,5.83
2023-03-29T03:21:09.756Z,4.37
2023-03-29T03:25:11.766Z,5.10
2023-03-29T03:29:15.899Z,4.70
2023-03-29T03:33:19.017Z,5.33
2023-03-29T03:37:21.030Z,6.73
2023-03-29T03:41:23.041Z,5.10
2023-03-29T03:45:25.125Z,6.47
2023-03-29T03:49:27.280Z,6.03
2023-03-29T03:53:44.509Z,6.70
2023-03-29T03:57:53.459Z,6.73
2023-03-29T04:01:56.019Z,4.47
2023-03-29T04:06:01.065Z,5.00
2023-03-29T04:10:04.535Z,5.13
2023-03-29T04:14:06.660Z,5.80
2023-03-29T04:18:11.172Z,5.63
2023-03-29T04:22:13.124Z,6.07
2023-03-29T04:26:18.209Z,7.53
2023-03-29T04:30:20.481Z,5.10
2023-03-29T04:34:22.507Z,5.77
2023-03-29T04:38:24.620Z,5.67
2023-03-29T04:42:36.780Z,9.00
2023-03-29T04:46:43.076Z,7.03
2023-03-29T04:50:48.136Z,7.47
2023-03-29T04:54:56.146Z,7.00
2023-03-29T04:58:58.519Z,6.30
2023-03-29T05:03:00.642Z,5.03
2023-03-29T05:07:03.070Z,6.80
2023-03-29T05:11:15.376Z,8.10
2023-03-29T05:15:17.376Z,6.50
2023-03-29T05:19:25.199Z,7.23
2023-03-29T05:23:34.368Z,7.60
2023-03-29T05:27:36.342Z,7.03
2023-03-29T05:31:38.181Z,8.80
2023-03-29T05:35:40.083Z,7.67
2023-03-29T05:39:43.166Z,7.00
2023-03-29T05:43:45.401Z,8.30
2023-03-29T05:47:48.038Z,6.37
2023-03-29T05:51:49.866Z,8.97
2023-03-29T05:55:51.943Z,9.33
2023-03-29T05:59:54.933Z,10.73
2023-03-29T06:03:58.051Z,5.60
2023-03-29T06:08:00.632Z,8.60
2023-03-29T06:12:02.490Z,8.30
2023-03-29T06:16:08.681Z,6.27
2023-03-29T06:20:11.872Z,9.27
2023-03-29T06:24:14.087Z,10.27
2023-03-29T06:28:17.057Z,6.73
2023-03-29T06:32:18.979Z,9.80
2023-03-29T06:36:20.974Z,7.07
2023-03-29T06:40:23.120Z,8.97
2023-03-29T06:44:28.472Z,6.77
2023-03-29T06:48:30.592Z,7.00
2023-03-29T06:52:32.861Z,12.13
2023-03-29T06:56:34.767Z,6.17
2023-03-29T07:00:39.009Z,12.17
2023-03-29T07:04:41.987Z,5.43
2023-03-29T07:08:45.070Z,5.30
2023-03-29T07:12:46.896Z,12.03
2023-03-29T07:16:49.613Z,5.60
2023-03-29T07:20:52.262Z,6.60
2023-03-29T07:24:54.324Z,7.83
2023-03-29T07:28:56.962Z,7.10
2023-03-29T07:32:59.120Z,8.37
2023-03-29T07:37:01.209Z,8.57
2023-03-29T07:41:06.721Z,6.90
2023-03-29T07:45:09.168Z,9.07
2023-03-29T07:49:11.111Z,10.07
2023-03-29T07:53:13.128Z,7.47
2023-03-29T07:57:15.030Z,7.57
2023-03-29T08:01:19.806Z,7.03
2023-03-29T08:05:37.770Z,6.53
2023-03-29T08:09:43.525Z,7.23
2023-03-29T08:13:45.657Z,7.63
2023-03-29T08:17:52.413Z,5.57
2023-03-29T08:21:55.930Z,5.73
2023-03-29T08:25:57.791Z,7.03
2023-03-29T08:30:00.957Z,7.60
2023-03-29T08:34:03.178Z,6.83
2023-03-29T08:38:05.463Z,9.23
2023-03-29T08:43:05.353Z,5.27
2023-03-29T08:47:33.240Z,6.03
2023-03-29T08:51:54.797Z,6.10
2023-03-29T08:55:59.116Z,7.60
2023-03-29T09:00:02.332Z,6.73
2023-03-29T09:04:11.951Z,4.33
2023-03-29T09:08:18.357Z,6.30
2023-03-29T09:12:55.200Z,5.57
2023-03-29T09:17:16.786Z,6.50
2023-03-29T09:21:46.998Z,9.93
2023-03-29T09:26:15.444Z,8.63
2023-03-29T09:30:41.633Z,5.37
2023-03-29T09:35:18.870Z,6.53
2023-03-29T09:39:21.333Z,5.80
2023-03-29T09:43:36.928Z,5.83
2023-03-29T09:47:44.996Z,6.00
2023-03-29T09:51:48.600Z,4.10
2023-03-29T09:55:51.025Z,7.57
2023-03-29T09:59:53.098Z,6.47
2023-03-29T10:03:54.988Z,7.23
2023-03-29T10:07:59.677Z,7.50
2023-03-29T10:12:05.680Z,9.33
2023-03-29T10:16:09.291Z,8.53
2023-03-29T10:20:17.081Z,9.20
2023-03-29T10:24:23.002Z,6.67
2023-03-29T10:28:27.671Z,7.93
2023-03-29T10:32:35.137Z,6.67
2023-03-29T10:36:37.095Z,6.10
2023-03-29T10:40:45.712Z,5.27
2023-03-29T10:44:56.682Z,3.27
2023-03-29T10:49:03.001Z,3.37
2023-03-29T10:53:24.586Z,3.77
2023-03-29T10:57:57.601Z,3.00
2023-03-29T11:02:14.616Z,4.83
2023-03-29T11:06:22.555Z,5.30
2023-03-29T11:11:00.813Z,3.87
2023-03-29T11:15:22.288Z,4.23
2023-03-29T11:20:25.437Z,5.97
2023-03-29T11:24:37.387Z,3.63
2023-03-29T11:28:53.154Z,6.00
2023-03-29T11:33:19.696Z,3.83
2023-03-29T11:37:58.411Z,4.70
2023-03-29T11:42:11.792Z,3.37
2023-03-29T11:46:30.317Z,4.87
2023-03-29T11:50:47.505Z,4.20
2023-03-29T11:55:26.162Z,3.10
2023-03-29T11:59:39.205Z,9.30
2023-03-29T12:03:49.158Z,7.13
2023-03-29T12:07:59.855Z,8.33
2023-03-29T12:12:21.366Z,5.10
2023-03-29T12:16:45.056Z,7.00
2023-03-29T12:20:50.074Z,7.77
2023-03-29T12:24:52.440Z,4.37
2023-03-29T12:29:34.694Z,7.20
2023-03-29T12:34:10.340Z,8.77
2023-03-29T12:38:27.631Z,8.53
2023-03-29T12:42:31.414Z,6.67
2023-03-29T12:46:36.159Z,7.90
2023-03-29T12:50:49.492Z,7.47
2023-03-29T12:55:17.589Z,11.63
2023-03-29T12:59:43.602Z,10.57
2023-03-29T13:04:13.852Z,12.13
2023-03-29T13:08:26.646Z,10.57
2023-03-29T13:12:39.299Z,10.77
2023-03-29T13:16:41.261Z,10.30
2023-03-29T13:21:14.271Z,13.20
2023-03-29T13:25:31.179Z,11.57
2023-03-29T13:30:03.808Z,12.10
2023-03-29T13:34:44.123Z,11.93
2023-03-29T13:38:59.372Z,10.23
2023-03-29T13:43:19.584Z,12.43
2023-03-29T13:47:41.787Z,11.83
2023-03-29T13:52:16.222Z,12.03
2023-03-29T14:01:46.921Z,11.87
2023-03-29T14:06:02.685Z,13.87
2023-03-29T14:10:05.393Z,12.13
2023-03-29T14:14:10.503Z,13.47
2023-03-29T14:18:19.365Z,10.53
2023-03-29T14:22:31.340Z,12.40
2023-03-29T14:26:40.110Z,11.27
2023-03-29T14:30:47.163Z,8.37
2023-03-29T14:34:50.953Z,13.50
2023-03-29T14:39:01.573Z,12.97
2023-03-29T14:43:08.059Z,10.87
2023-03-29T14:47:10.128Z,8.83
2023-03-29T14:51:12.183Z,11.57
2023-03-29T14:55:14.261Z,11.63
2023-03-29T15:00:00.818Z,14.63
2023-03-29T15:04:06.970Z,10.30
2023-03-29T15:08:40.549Z,11.80
2023-03-29T15:12:49.793Z,8.53
2023-03-29T15:17:04.427Z,8.97
2023-03-29T15:21:10.780Z,6.93
2023-03-29T15:25:22.493Z,9.10
2023-03-29T15:29:26.030Z,9.87
2023-03-29T15:33:34.956Z,11.47
2023-03-29T15:37:37.870Z,9.10
2023-03-29T15:41:43.522Z,8.17
2023-03-29T15:45:54.655Z,11.17
2023-03-29T15:49:59.906Z,8.73
2023-03-29T15:54:01.936Z,10.60
2023-03-29T15:58:03.844Z,8.33
2023-03-29T16:02:07.446Z,6.70
2023-03-29T16:06:11.959Z,8.27
2023-03-29T16:11:25.870Z,9.57
2023-03-29T16:26:33.331Z,7.47
2023-03-29T16:30:37.273Z,5.90
2023-03-29T16:34:41.388Z,7.93
2023-03-29T16:38:43.612Z,6.03
2023-03-29T16:42:48.282Z,7.27
2023-03-29T16:46:59.260Z,5.77
2023-03-29T16:51:02.224Z,6.23
2023-03-29T16:55:22.005Z,7.53
2023-03-29T16:59:38.666Z,6.97
2023-03-29T17:03:45.319Z,8.77
2023-03-29T17:07:52.194Z,8.73
2023-03-29T17:11:55.763Z,10.50
2023-03-29T17:16:04.512Z,9.93
2023-03-29T17:20:24.395Z,10.83
2023-03-29T17:24:31.586Z,11.17
2023-03-29T17:28:35.311Z,9.93
2023-03-29T17:32:43.104Z,10.13
2023-03-29T17:37:11.591Z,11.70
2023-03-29T17:41:17.957Z,11.67
2023-03-29T17:45:39.909Z,13.30
2023-03-29T17:49:45.270Z,9.97
2023-03-29T17:54:07.705Z,14.73
2023-03-29T17:58:23.782Z,13.00
2023-03-29T18:02:27.994Z,12.90
2023-03-29T18:06:37.360Z,14.57
2023-03-29T18:10:46.447Z,13.70
2023-03-29T18:15:02.192Z,14.17
2023-03-29T18:19:06.490Z,15.73
2023-03-29T18:23:11.521Z,13.83
2023-03-29T18:27:21.599Z,14.93
2023-03-29T18:31:35.824Z,13.27
2023-03-29T18:35:37.850Z,15.43
2023-03-29T18:39:41.623Z,13.50
2023-03-29T18:43:47.313Z,16.00
2023-03-29T18:47:54.116Z,12.50
2023-03-29T18:52:00.913Z,13.93
2023-03-29T18:56:12.558Z,14.63
2023-03-29T19:00:21.128Z,14.53
2023-03-29T19:04:27.272Z,14.17
2023-03-29T19:08:34.299Z,14.47
2023-03-29T19:12:36.995Z,12.50
2023-03-29T19:16:42.207Z,14.10
2023-03-29T19:20:55.762Z,14.03
2023-03-29T19:24:57.688Z,15.40
2023-03-29T19:29:04.188Z,12.00
2023-03-29T19:33:06.300Z,14.07
2023-03-29T19:37:08.522Z,12.43
2023-03-29T19:41:12.407Z,13.53
2023-03-29T19:45:19.508Z,13.00
2023-03-29T19:49:24.486Z,11.97
2023-03-29T19:53:29.137Z,11.60
2023-03-29T19:57:34.414Z,12.70
2023-03-29T20:01:39.447Z,12.57
2023-03-29T20:05:42.131Z,14.87
2023-03-29T20:09:45.375Z,11.40
2023-03-29T20:13:47.478Z,12.13
2023-03-29T20:17:51.596Z,12.27
2023-03-29T20:21:58.812Z,14.33
2023-03-29T20:26:00.880Z,12.70
2023-03-29T20:30:03.252Z,12.10
2023-03-29T20:34:05.327Z,11.43
2023-03-29T20:38:07.303Z,13.40
2023-03-29T20:42:09.320Z,10.97
2023-03-29T20:46:22.866Z,11.77
2023-03-29T20:50:28.535Z,11.37
2023-03-29T20:54:33.387Z,12.03
2023-03-29T20:58:35.301Z,12.87
2023-03-29T21:02:38.185Z,12.00
2023-03-29T21:06:40.122Z,12.53
2023-03-29T21:10:42.466Z,13.90
2023-03-29T21:14:44.773Z,13.13
2023-03-29T21:18:47.060Z,10.50
2023-03-29T21:22:51.946Z,10.37
2023-03-29T21:26:53.998Z,10.57
2023-03-29T21:30:55.933Z,11.67
2023-03-29T21:34:58.105Z,12.13
2023-03-29T21:38:59.929Z,10.87
2023-03-29T21:43:01.884Z,12.47
2023-03-29T21:47:03.956Z,9.97
2023-03-29T21:51:06.641Z,10.37
2023-03-29T21:55:08.881Z,11.33
2023-03-29T21:59:10.661Z,11.93
2023-03-29T22:03:13.249Z,10.97
2023-03-29T22:07:15.155Z,10.37
2023-03-29T22:11:17.396Z,11.93
2023-03-29T22:15:22.119Z,10.80
2023-03-29T22:19:25.193Z,10.60
2023-03-29T22:23:27.769Z,10.83
2023-03-29T22:27:32.100Z,10.23
2023-03-29T22:31:34.006Z,11.87
2023-03-29T22:35:35.967Z,10.23
2023-03-29T22:39:38.114Z,11.57
2023-03-29T22:43:39.980Z,9.73
2023-03-29T22:47:42.014Z,9.07
2023-03-29T22:51:43.911Z,8.60
2023-03-29T22:55:46.226Z,10.37
2023-03-29T22:59:48.114Z,8.97
2023-03-29T23:03:49.999Z,11.07
2023-03-29T23:07:52.080Z,9.57
2023-03-29T23:11:54.047Z,9.73
2023-03-29T23:15:58.881Z,8.43
2023-03-29T23:20:02.275Z,8.30
2023-03-29T23:24:04.618Z,8.47
2023-03-29T23:28:06.623Z,9.27
2023-03-29T23:32:08.506Z,9.67
2023-03-29T23:36:15.612Z,8.57
2023-03-29T23:40:17.648Z,8.47
2023-03-29T23:44:19.659Z,9.80
2023-03-29T23:48:21.436Z,9.27
2023-03-29T23:52:25.266Z,8.67
2023-03-29T23:56:27.541Z,10.73
